createdAt,value
2023-03-02T00:00:16.894Z,3.50
2023-03-02T00:05:18.833Z,3.50
2023-03-02T00:10:21.180Z,3.40
2023-03-02T00:15:23.376Z,3.60
2023-03-02T00:20:25.181Z,3.50
2023-03-02T00:25:27.002Z,3.50
2023-03-02T00:30:29.162Z,3.40
2023-03-02T00:35:30.985Z,3.20
2023-03-02T00:40:33.580Z,3.40
2023-03-02T00:45:35.456Z,3.30
2023-03-02T00:50:40.986Z,3.30
2023-03-02T00:55:42.745Z,3.30
2023-03-02T01:00:44.905Z,3.40
2023-03-02T01:05:47.063Z,3.30
2023-03-02T01:10:49.088Z,3.30
2023-03-02T01:16:00.427Z,3.30
2023-03-02T01:21:08.014Z,3.20
2023-03-02T01:26:09.925Z,3.20
2023-03-02T01:31:12.011Z,3.20
2023-03-02T01:36:13.936Z,3.20
2023-03-02T01:41:16.114Z,3.30
2023-03-02T01:46:25.619Z,3.10
2023-03-02T01:51:30.640Z,3.10
2023-03-02T01:56:37.062Z,3.20
2023-03-02T02:01:43.120Z,3.20
2023-03-02T02:06:50.749Z,3.10
2023-03-02T02:11:53.124Z,3.00
2023-03-02T02:16:55.026Z,3.00
2023-03-02T02:21:57.075Z,3.00
2023-03-02T02:26:59.101Z,3.00
2023-03-02T02:32:02.687Z,3.10
2023-03-02T02:37:13.454Z,3.00
2023-03-02T02:42:34.551Z,3.00
2023-03-02T02:47:36.476Z,2.90
2023-03-02T02:52:40.972Z,2.90
2023-03-02T02:57:43.337Z,2.80
2023-03-02T03:02:50.682Z,2.80
2023-03-02T03:07:53.608Z,3.00
2023-03-02T03:12:56.461Z,2.90
2023-03-02T03:17:59.374Z,2.90
2023-03-02T03:23:01.455Z,2.80
2023-03-02T03:33:06.005Z,2.60
2023-03-02T03:38:08.977Z,3.20
2023-03-02T03:43:13.827Z,2.50
2023-03-02T03:53:18.041Z,2.30
2023-03-02T03:58:20.343Z,2.40
2023-03-02T04:03:22.707Z,2.50
2023-03-02T04:08:24.692Z,2.50
2023-03-02T04:13:26.698Z,2.50
2023-03-02T04:18:29.107Z,4.20
2023-03-02T04:23:31.358Z,2.40
2023-03-02T04:28:34.014Z,2.40
2023-03-02T04:33:35.956Z,3.00
2023-03-02T04:38:40.261Z,2.30
2023-03-02T04:43:42.252Z,2.20
2023-03-02T04:53:47.946Z,2.20
2023-03-02T04:58:50.400Z,2.20
2023-03-02T05:03:52.855Z,2.20
2023-03-02T05:08:54.734Z,2.10
2023-03-02T05:14:00.023Z,1.90
2023-03-02T05:19:06.188Z,2.10
2023-03-02T05:24:08.517Z,2.10
2023-03-02T05:29:10.401Z,2.90
2023-03-02T05:34:15.190Z,2.00
2023-03-02T05:39:16.953Z,2.00
2023-03-02T05:44:18.916Z,2.20
2023-03-02T05:49:20.663Z,2.20
2023-03-02T05:54:22.505Z,2.00
2023-03-02T05:59:24.575Z,2.10
2023-03-02T06:04:26.456Z,3.20
2023-03-02T06:09:28.254Z,2.00
2023-03-02T06:14:30.115Z,1.90
2023-03-02T06:19:32.164Z,1.90
2023-03-02T06:24:34.077Z,2.00
2023-03-02T06:29:36.053Z,1.90
2023-03-02T06:34:38.091Z,2.00
2023-03-02T06:39:40.094Z,2.20
2023-03-02T06:44:41.995Z,2.40
2023-03-02T06:49:44.037Z,2.50
2023-03-02T06:54:45.796Z,2.40
2023-03-02T06:59:47.840Z,2.50
2023-03-02T07:04:50.788Z,3.20
2023-03-02T07:09:52.593Z,2.80
2023-03-02T07:14:54.350Z,3.10
2023-03-02T07:19:56.172Z,3.30
2023-03-02T07:24:58.303Z,3.40
2023-03-02T07:30:00.112Z,3.30
2023-03-02T07:35:02.237Z,3.50
2023-03-02T07:40:05.047Z,3.80
2023-03-02T07:45:07.752Z,4.00
2023-03-02T07:50:10.238Z,3.90
2023-03-02T07:55:12.126Z,4.50
2023-03-02T08:00:14.901Z,4.60
2023-03-02T08:05:16.989Z,4.80
2023-03-02T08:10:18.993Z,7.00
2023-03-02T08:15:20.997Z,5.50
2023-03-02T08:20:22.985Z,5.90
2023-03-02T08:25:24.862Z,5.80
2023-03-02T08:30:26.722Z,6.30
2023-03-02T08:35:28.601Z,6.50
2023-03-02T08:45:34.904Z,6.70
2023-03-02T08:50:36.739Z,7.70
2023-03-02T08:55:38.517Z,7.50
2023-03-02T09:00:40.400Z,7.70
2023-03-02T09:05:42.304Z,7.80
2023-03-02T09:10:44.080Z,10.30
2023-03-02T09:15:46.145Z,9.90
2023-03-02T09:20:54.072Z,9.70
2023-03-02T09:25:57.311Z,9.00
2023-03-02T09:31:00.894Z,9.10
2023-03-02T09:36:11.787Z,9.50
2023-03-02T09:41:19.913Z,9.60
2023-03-02T09:47:06.788Z,11.30
2023-03-02T09:52:36.621Z,10.30
2023-03-02T09:57:39.857Z,10.50
2023-03-02T10:03:00.494Z,10.90
2023-03-02T10:08:04.469Z,11.00
2023-03-02T10:13:14.392Z,11.00
2023-03-02T10:18:25.136Z,11.30
2023-03-02T10:23:36.149Z,11.40
2023-03-02T10:28:50.401Z,11.70
2023-03-02T10:33:52.478Z,11.30
2023-03-02T10:38:55.904Z,11.50
2023-03-02T10:44:06.316Z,11.40
2023-03-02T10:49:42.297Z,11.80
2023-03-02T10:54:44.639Z,11.70
2023-03-02T10:59:49.281Z,11.70
2023-03-02T11:05:15.184Z,12.20
2023-03-02T11:10:32.010Z,12.90
2023-03-02T11:15:43.982Z,13.10
2023-03-02T11:20:50.712Z,13.80
2023-03-02T11:25:57.302Z,14.60
2023-03-02T11:31:00.675Z,15.40
2023-03-02T11:36:19.128Z,15.60
2023-03-02T11:46:33.135Z,15.70
2023-03-02T11:51:50.036Z,17.00
2023-03-02T11:56:55.695Z,16.90
2023-03-02T12:01:59.772Z,17.20
2023-03-02T12:07:15.585Z,17.30
2023-03-02T12:12:44.528Z,18.50
2023-03-02T12:17:46.310Z,17.70
2023-03-02T12:22:48.320Z,18.20
2023-03-02T12:27:52.677Z,17.50
2023-03-02T12:33:05.195Z,18.00
2023-03-02T12:38:20.104Z,17.30
2023-03-02T12:43:30.785Z,17.70
2023-03-02T12:48:49.269Z,17.20
2023-03-02T12:54:13.660Z,17.20
2023-03-02T12:59:26.965Z,16.80
2023-03-02T13:04:29.092Z,16.60
2023-03-02T13:09:31.161Z,16.70
2023-03-02T13:14:33.440Z,17.60
2023-03-02T13:19:35.597Z,17.90
2023-03-02T13:25:00.525Z,18.80
2023-03-02T13:30:23.050Z,19.60
2023-03-02T13:35:28.413Z,21.30
2023-03-02T13:40:40.205Z,20.90
2023-03-02T13:46:14.155Z,22.60
2023-03-02T13:51:18.629Z,23.10
2023-03-02T13:56:22.784Z,21.80
2023-03-02T14:01:24.886Z,22.30
2023-03-02T14:06:26.894Z,24.90
2023-03-02T14:11:35.128Z,24.30
2023-03-02T14:16:37.277Z,23.50
2023-03-02T14:21:39.408Z,24.70
2023-03-02T14:26:47.495Z,25.80
2023-03-02T14:31:49.545Z,24.90
2023-03-02T14:36:54.439Z,24.80
2023-03-02T14:41:56.614Z,25.70
2023-03-02T14:46:59.995Z,25.60
2023-03-02T14:52:15.308Z,22.90
2023-03-02T14:57:20.340Z,22.70
2023-03-02T15:02:26.056Z,19.40
2023-03-02T15:07:28.836Z,18.00
2023-03-02T15:12:30.737Z,17.00
2023-03-02T15:17:32.516Z,16.20
2023-03-02T15:22:34.941Z,15.30
2023-03-02T15:27:37.360Z,14.80
2023-03-02T15:32:39.251Z,14.70
2023-03-02T15:37:41.354Z,14.30
2023-03-02T15:42:43.901Z,14.30
2023-03-02T15:47:45.695Z,14.20
2023-03-02T15:52:47.855Z,14.00
2023-03-02T15:57:49.827Z,13.70
2023-03-02T16:02:51.718Z,13.60
2023-03-02T16:07:53.538Z,13.30
2023-03-02T16:12:55.657Z,13.90
2023-03-02T16:17:59.053Z,13.10
2023-03-02T16:23:02.453Z,13.50
2023-03-02T16:28:04.808Z,13.00
2023-03-02T16:33:09.971Z,12.80
2023-03-02T16:38:12.039Z,12.50
2023-03-02T16:43:13.880Z,12.30
2023-03-02T16:48:15.726Z,12.10
2023-03-02T16:53:19.573Z,11.80
2023-03-02T16:58:21.726Z,12.80
2023-03-02T17:03:23.563Z,11.50
2023-03-02T17:08:25.613Z,11.60
2023-03-02T17:13:27.787Z,11.00
2023-03-02T17:18:30.684Z,10.90
2023-03-02T17:23:33.823Z,10.80
2023-03-02T17:28:35.820Z,10.60
2023-03-02T17:33:38.321Z,10.70
2023-03-02T17:38:40.502Z,10.50
2023-03-02T17:43:42.913Z,10.30
2023-03-02T17:48:44.922Z,10.20
2023-03-02T17:53:48.788Z,10.10
2023-03-02T17:58:55.186Z,10.10
2023-03-02T18:03:57.831Z,10.10
2023-03-02T18:08:59.864Z,9.90
2023-03-02T18:14:02.086Z,10.00
2023-03-02T18:19:04.033Z,9.90
2023-03-02T18:24:07.012Z,10.00
2023-03-02T18:29:08.875Z,9.90
2023-03-02T18:34:10.788Z,9.60
2023-03-02T18:39:12.860Z,9.70
2023-03-02T18:44:14.641Z,9.80
2023-03-02T18:49:16.503Z,9.40
2023-03-02T18:54:19.307Z,9.40
2023-03-02T18:59:21.125Z,9.40
2023-03-02T19:04:26.438Z,10.00
2023-03-02T19:09:28.679Z,9.30
2023-03-02T19:14:30.955Z,9.40
2023-03-02T19:19:33.247Z,9.40
2023-03-02T19:24:35.851Z,9.30
2023-03-02T19:29:38.818Z,9.30
2023-03-02T19:34:43.156Z,9.90
2023-03-02T19:39:45.197Z,9.30
2023-03-02T19:44:47.197Z,9.40
2023-03-02T19:49:49.064Z,9.10
2023-03-02T19:54:51.026Z,9.10
2023-03-02T19:59:52.920Z,9.00
2023-03-02T20:04:54.613Z,9.00
2023-03-02T20:09:57.163Z,8.80
2023-03-02T20:14:59.273Z,8.80
2023-03-02T20:20:02.213Z,8.80
2023-03-02T20:25:05.183Z,8.60
2023-03-02T20:30:09.043Z,8.50
2023-03-02T20:35:11.988Z,8.50
2023-03-02T20:40:14.837Z,8.30
2023-03-02T20:45:16.781Z,8.10
2023-03-02T20:50:22.467Z,8.10
2023-03-02T20:55:26.838Z,8.00
2023-03-02T21:00:30.711Z,8.30
2023-03-02T21:05:34.424Z,7.80
2023-03-02T21:10:38.885Z,7.70
2023-03-02T21:15:41.225Z,7.60
2023-03-02T21:20:43.216Z,7.50
2023-03-02T21:25:45.010Z,7.30
2023-03-02T21:30:46.983Z,7.10
2023-03-02T21:35:48.844Z,6.90
2023-03-02T21:40:50.749Z,6.90
2023-03-02T21:45:52.572Z,5.30
2023-03-02T21:50:54.794Z,6.80
2023-03-02T21:55:56.971Z,6.50
2023-03-02T22:00:58.672Z,6.40
2023-03-02T22:06:00.566Z,6.50
2023-03-02T22:11:02.653Z,6.40
2023-03-02T22:16:18.766Z,6.40
2023-03-02T22:21:48.662Z,6.10
2023-03-02T22:27:16.495Z,6.10
2023-03-02T22:32:21.854Z,6.10
2023-03-02T22:37:34.125Z,5.90
2023-03-02T22:42:36.249Z,6.00
2023-03-02T22:47:42.879Z,5.80
2023-03-02T22:52:45.308Z,5.80
2023-03-02T22:57:47.451Z,5.60
2023-03-02T23:02:50.007Z,5.30
2023-03-02T23:08:11.796Z,5.30
2023-03-02T23:13:16.839Z,5.10
2023-03-02T23:18:28.541Z,5.30
2023-03-02T23:23:31.157Z,5.40
2023-03-02T23:28:33.153Z,5.20
2023-03-02T23:33:34.960Z,5.00
2023-03-02T23:38:37.389Z,4.90
2023-03-02T23:43:39.382Z,4.90
2023-03-02T23:48:42.430Z,4.80
2023-03-02T23:53:44.854Z,4.60
2023-03-02T23:58:46.842Z,4.60
